sensor_id;sensor_type;location;lat;lon;timestamp;temperature;humidity
9209;DHT22;4639;48.862;9.188;2024-02-23T00:01:40;7.20;99.90
9209;DHT22;4639;48.862;9.188;2024-02-23T00:04:05;7.30;99.90
9209;DHT22;4639;48.862;9.188;2024-02-23T00:06:33;7.30;99.90
9209;DHT22;4639;48.862;9.188;2024-02-23T00:08:59;7.30;99.90
9209;DHT22;4639;48.862;9.188;2024-02-23T00:11:25;7.20;99.90
9209;DHT22;4639;48.862;9.188;2024-02-23T00:13:53;7.20;99.90
9209;DHT22;4639;48.862;9.188;2024-02-23T00:16:18;7.30;99.90
9209;DHT22;4639;48.862;9.188;2024-02-23T00:18:44;7.20;99.90
9209;DHT22;4639;48.862;9.188;2024-02-23T00:21:10;7.20;99.90
9209;DHT22;4639;48.862;9.188;2024-02-23T00:23:36;7.20;99.90
9209;DHT22;4639;48.862;9.188;2024-02-23T00:26:01;7.20;99.90
9209;DHT22;4639;48.862;9.188;2024-02-23T00:28:27;7.20;99.90
9209;DHT22;4639;48.862;9.188;2024-02-23T00:30:53;7.20;99.90
9209;DHT22;4639;48.862;9.188;2024-02-23T00:33:18;7.30;99.90
9209;DHT22;4639;48.862;9.188;2024-02-23T00:35:44;7.40;99.90
9209;DHT22;4639;48.862;9.188;2024-02-23T00:38:09;7.40;99.90
9209;DHT22;4639;48.862;9.188;2024-02-23T00:40:35;7.40;99.90
9209;DHT22;4639;48.862;9.188;2024-02-23T00:43:01;7.40;99.90
9209;DHT22;4639;48.862;9.188;2024-02-23T00:45:28;7.40;99.90
9209;DHT22;4639;48.862;9.188;2024-02-23T00:47:54;7.30;99.90
9209;DHT22;4639;48.862;9.188;2024-02-23T00:50:19;7.30;99.90
9209;DHT22;4639;48.862;9.188;2024-02-23T00:52:45;7.30;99.90
9209;DHT22;4639;48.862;9.188;2024-02-23T00:55:10;7.40;99.90
9209;DHT22;4639;48.862;9.188;2024-02-23T00:57:37;7.40;99.90
9209;DHT22;4639;48.862;9.188;2024-02-23T01:00:04;7.40;99.90
9209;DHT22;4639;48.862;9.188;2024-02-23T01:02:31;7.40;99.90
9209;DHT22;4639;48.862;9.188;2024-02-23T01:04:57;7.40;99.90
9209;DHT22;4639;48.862;9.188;2024-02-23T01:07:24;7.30;99.90
9209;DHT22;4639;48.862;9.188;2024-02-23T01:09:49;7.40;99.90
9209;DHT22;4639;48.862;9.188;2024-02-23T01:12:15;7.30;99.90
9209;DHT22;4639;48.862;9.188;2024-02-23T01:14:41;7.40;99.90
9209;DHT22;4639;48.862;9.188;2024-02-23T01:17:06;7.40;99.90
9209;DHT22;4639;48.862;9.188;2024-02-23T01:19:32;7.40;99.90
9209;DHT22;4639;48.862;9.188;2024-02-23T01:21:57;7.50;99.90
9209;DHT22;4639;48.862;9.188;2024-02-23T01:24:27;7.50;99.90
9209;DHT22;4639;48.862;9.188;2024-02-23T01:26:56;7.50;99.90
9209;DHT22;4639;48.862;9.188;2024-02-23T01:29:22;7.60;99.90
9209;DHT22;4639;48.862;9.188;2024-02-23T01:31:48;7.50;99.90
9209;DHT22;4639;48.862;9.188;2024-02-23T01:34:14;7.40;99.90
9209;DHT22;4639;48.862;9.188;2024-02-23T01:36:40;7.40;99.90
9209;DHT22;4639;48.862;9.188;2024-02-23T01:39:05;7.50;99.90
9209;DHT22;4639;48.862;9.188;2024-02-23T01:41:32;7.60;99.90
9209;DHT22;4639;48.862;9.188;2024-02-23T01:43:58;7.60;99.90
9209;DHT22;4639;48.862;9.188;2024-02-23T01:46:24;7.60;99.90
9209;DHT22;4639;48.862;9.188;2024-02-23T01:48:49;7.60;99.90
9209;DHT22;4639;48.862;9.188;2024-02-23T01:51:15;7.60;99.90
9209;DHT22;4639;48.862;9.188;2024-02-23T01:53:41;7.60;99.90
9209;DHT22;4639;48.862;9.188;2024-02-23T01:56:07;7.60;99.90
9209;DHT22;4639;48.862;9.188;2024-02-23T01:58:35;7.70;99.90
9209;DHT22;4639;48.862;9.188;2024-02-23T02:01:02;7.70;99.90
9209;DHT22;4639;48.862;9.188;2024-02-23T02:03:28;7.70;99.90
9209;DHT22;4639;48.862;9.188;2024-02-23T02:05:54;7.70;99.90
9209;DHT22;4639;48.862;9.188;2024-02-23T02:08:20;7.60;99.90
9209;DHT22;4639;48.862;9.188;2024-02-23T02:10:46;7.60;99.90
9209;DHT22;4639;48.862;9.188;2024-02-23T02:13:12;7.60;99.90
9209;DHT22;4639;48.862;9.188;2024-02-23T02:15:38;7.60;99.90
9209;DHT22;4639;48.862;9.188;2024-02-23T02:18:04;7.60;99.90
9209;DHT22;4639;48.862;9.188;2024-02-23T02:20:32;7.60;99.90
9209;DHT22;4639;48.862;9.188;2024-02-23T02:22:58;7.70;99.90
9209;DHT22;4639;48.862;9.188;2024-02-23T02:25:24;7.60;99.90
9209;DHT22;4639;48.862;9.188;2024-02-23T02:27:49;7.60;99.90
9209;DHT22;4639;48.862;9.188;2024-02-23T02:30:15;7.50;99.90
9209;DHT22;4639;48.862;9.188;2024-02-23T02:32:41;7.50;99.90
9209;DHT22;4639;48.862;9.188;2024-02-23T02:35:07;7.50;99.90
9209;DHT22;4639;48.862;9.188;2024-02-23T02:37:32;7.50;99.90
9209;DHT22;4639;48.862;9.188;2024-02-23T02:39:58;7.50;99.90
9209;DHT22;4639;48.862;9.188;2024-02-23T02:42:23;7.30;99.90
9209;DHT22;4639;48.862;9.188;2024-02-23T02:44:49;7.10;99.90
9209;DHT22;4639;48.862;9.188;2024-02-23T02:47:14;7.10;99.90
9209;DHT22;4639;48.862;9.188;2024-02-23T02:49:40;7.10;99.90
9209;DHT22;4639;48.862;9.188;2024-02-23T02:52:06;7.10;99.90
9209;DHT22;4639;48.862;9.188;2024-02-23T02:54:31;7.10;99.90
9209;DHT22;4639;48.862;9.188;2024-02-23T02:56:57;7.10;99.90
9209;DHT22;4639;48.862;9.188;2024-02-23T02:59:23;7.10;99.90
9209;DHT22;4639;48.862;9.188;2024-02-23T03:01:49;7.10;99.90
9209;DHT22;4639;48.862;9.188;2024-02-23T03:04:14;7.00;99.90
9209;DHT22;4639;48.862;9.188;2024-02-23T03:06:40;7.10;99.90
9209;DHT22;4639;48.862;9.188;2024-02-23T03:09:05;7.20;99.90
9209;DHT22;4639;48.862;9.188;2024-02-23T03:11:32;7.20;99.90
9209;DHT22;4639;48.862;9.188;2024-02-23T03:13:58;7.20;99.90
9209;DHT22;4639;48.862;9.188;2024-02-23T03:16:23;7.20;99.90
9209;DHT22;4639;48.862;9.188;2024-02-23T03:18:51;7.20;99.90
9209;DHT22;4639;48.862;9.188;2024-02-23T03:21:17;7.20;99.90
9209;DHT22;4639;48.862;9.188;2024-02-23T03:23:43;7.20;99.90
9209;DHT22;4639;48.862;9.188;2024-02-23T03:26:08;7.10;99.90
9209;DHT22;4639;48.862;9.188;2024-02-23T03:28:34;7.20;99.90
9209;DHT22;4639;48.862;9.188;2024-02-23T03:31:00;7.20;99.90
9209;DHT22;4639;48.862;9.188;2024-02-23T03:33:26;7.20;99.90
9209;DHT22;4639;48.862;9.188;2024-02-23T03:35:52;7.10;99.90
9209;DHT22;4639;48.862;9.188;2024-02-23T03:38:18;7.10;99.90
9209;DHT22;4639;48.862;9.188;2024-02-23T03:40:43;7.00;99.90
9209;DHT22;4639;48.862;9.188;2024-02-23T03:43:09;7.00;99.90
9209;DHT22;4639;48.862;9.188;2024-02-23T03:45:35;7.00;99.90
9209;DHT22;4639;48.862;9.188;2024-02-23T03:48:03;7.00;99.90
9209;DHT22;4639;48.862;9.188;2024-02-23T03:50:29;7.10;99.90
9209;DHT22;4639;48.862;9.188;2024-02-23T03:52:55;7.00;99.90
9209;DHT22;4639;48.862;9.188;2024-02-23T03:55:20;6.90;99.90
9209;DHT22;4639;48.862;9.188;2024-02-23T03:57:47;6.90;99.90
9209;DHT22;4639;48.862;9.188;2024-02-23T04:00:13;6.90;99.90
9209;DHT22;4639;48.862;9.188;2024-02-23T04:02:39;6.90;99.90
9209;DHT22;4639;48.862;9.188;2024-02-23T04:05:05;6.90;99.90
9209;DHT22;4639;48.862;9.188;2024-02-23T04:07:31;6.90;99.90
9209;DHT22;4639;48.862;9.188;2024-02-23T04:09:57;6.70;99.90
9209;DHT22;4639;48.862;9.188;2024-02-23T04:12:22;6.70;99.90
9209;DHT22;4639;48.862;9.188;2024-02-23T04:14:48;6.70;99.90
9209;DHT22;4639;48.862;9.188;2024-02-23T04:17:14;6.60;99.90
9209;DHT22;4639;48.862;9.188;2024-02-23T04:19:43;6.70;99.90
9209;DHT22;4639;48.862;9.188;2024-02-23T04:22:09;6.60;99.90
9209;DHT22;4639;48.862;9.188;2024-02-23T04:24:41;6.50;99.90
9209;DHT22;4639;48.862;9.188;2024-02-23T04:27:07;6.50;99.90
9209;DHT22;4639;48.862;9.188;2024-02-23T04:29:33;6.60;99.90
9209;DHT22;4639;48.862;9.188;2024-02-23T04:32:00;6.60;99.90
9209;DHT22;4639;48.862;9.188;2024-02-23T04:34:26;6.60;99.90
9209;DHT22;4639;48.862;9.188;2024-02-23T04:36:51;6.60;99.90
9209;DHT22;4639;48.862;9.188;2024-02-23T04:39:17;6.60;99.90
9209;DHT22;4639;48.862;9.188;2024-02-23T04:41:42;6.50;99.90
9209;DHT22;4639;48.862;9.188;2024-02-23T04:44:08;6.50;99.90
9209;DHT22;4639;48.862;9.188;2024-02-23T04:46:34;6.50;99.90
9209;DHT22;4639;48.862;9.188;2024-02-23T04:49:00;6.50;99.90
9209;DHT22;4639;48.862;9.188;2024-02-23T04:51:26;6.50;99.90
9209;DHT22;4639;48.862;9.188;2024-02-23T04:53:51;6.40;99.90
9209;DHT22;4639;48.862;9.188;2024-02-23T04:56:17;6.50;99.90
9209;DHT22;4639;48.862;9.188;2024-02-23T04:58:43;6.50;99.90
9209;DHT22;4639;48.862;9.188;2024-02-23T05:01:09;6.50;99.90
9209;DHT22;4639;48.862;9.188;2024-02-23T05:03:34;6.50;99.90
9209;DHT22;4639;48.862;9.188;2024-02-23T05:06:02;6.60;99.90
9209;DHT22;4639;48.862;9.188;2024-02-23T05:08:27;6.50;99.90
9209;DHT22;4639;48.862;9.188;2024-02-23T05:10:53;6.50;99.90
9209;DHT22;4639;48.862;9.188;2024-02-23T05:13:18;6.80;99.90
9209;DHT22;4639;48.862;9.188;2024-02-23T05:15:44;6.50;99.90
9209;DHT22;4639;48.862;9.188;2024-02-23T05:18:10;6.40;99.90
9209;DHT22;4639;48.862;9.188;2024-02-23T05:20:35;6.40;99.90
9209;DHT22;4639;48.862;9.188;2024-02-23T05:23:01;6.50;99.90
9209;DHT22;4639;48.862;9.188;2024-02-23T05:25:27;6.40;99.90
9209;DHT22;4639;48.862;9.188;2024-02-23T05:27:53;6.40;99.90
9209;DHT22;4639;48.862;9.188;2024-02-23T05:30:19;6.40;99.90
9209;DHT22;4639;48.862;9.188;2024-02-23T05:32:44;6.50;99.90
9209;DHT22;4639;48.862;9.188;2024-02-23T05:35:10;6.40;99.90
9209;DHT22;4639;48.862;9.188;2024-02-23T05:37:36;6.40;99.90
9209;DHT22;4639;48.862;9.188;2024-02-23T05:40:03;6.50;99.90
9209;DHT22;4639;48.862;9.188;2024-02-23T05:42:38;6.40;99.90
9209;DHT22;4639;48.862;9.188;2024-02-23T05:45:06;6.40;99.90
9209;DHT22;4639;48.862;9.188;2024-02-23T05:47:43;6.50;99.90
9209;DHT22;4639;48.862;9.188;2024-02-23T05:50:09;6.50;99.90
9209;DHT22;4639;48.862;9.188;2024-02-23T05:52:35;6.50;99.90
9209;DHT22;4639;48.862;9.188;2024-02-23T05:55:02;6.50;99.90
9209;DHT22;4639;48.862;9.188;2024-02-23T05:57:29;6.50;99.90
9209;DHT22;4639;48.862;9.188;2024-02-23T05:59:55;6.50;99.90
9209;DHT22;4639;48.862;9.188;2024-02-23T06:02:21;6.40;99.90
9209;DHT22;4639;48.862;9.188;2024-02-23T06:04:47;6.40;99.90
9209;DHT22;4639;48.862;9.188;2024-02-23T06:07:13;6.40;99.90
9209;DHT22;4639;48.862;9.188;2024-02-23T06:09:41;6.40;99.90
9209;DHT22;4639;48.862;9.188;2024-02-23T06:12:07;6.30;99.90
9209;DHT22;4639;48.862;9.188;2024-02-23T06:14:32;6.20;99.90
9209;DHT22;4639;48.862;9.188;2024-02-23T06:16:58;6.30;99.90
9209;DHT22;4639;48.862;9.188;2024-02-23T06:19:24;6.20;99.90
9209;DHT22;4639;48.862;9.188;2024-02-23T06:21:49;6.20;99.90
9209;DHT22;4639;48.862;9.188;2024-02-23T06:24:16;6.30;99.90
9209;DHT22;4639;48.862;9.188;2024-02-23T06:26:42;6.20;99.90
9209;DHT22;4639;48.862;9.188;2024-02-23T06:29:07;6.20;99.90
9209;DHT22;4639;48.862;9.188;2024-02-23T06:31:38;6.20;99.90
9209;DHT22;4639;48.862;9.188;2024-02-23T06:34:05;6.10;99.90
9209;DHT22;4639;48.862;9.188;2024-02-23T06:36:30;6.10;99.90
9209;DHT22;4639;48.862;9.188;2024-02-23T06:38:56;6.00;99.90
9209;DHT22;4639;48.862;9.188;2024-02-23T06:41:21;5.90;99.90
9209;DHT22;4639;48.862;9.188;2024-02-23T06:43:47;5.90;99.90
9209;DHT22;4639;48.862;9.188;2024-02-23T06:46:13;5.90;99.90
9209;DHT22;4639;48.862;9.188;2024-02-23T06:48:38;6.00;99.90
9209;DHT22;4639;48.862;9.188;2024-02-23T06:51:05;6.00;99.90
9209;DHT22;4639;48.862;9.188;2024-02-23T06:53:32;6.20;99.90
9209;DHT22;4639;48.862;9.188;2024-02-23T06:55:57;6.20;99.90
9209;DHT22;4639;48.862;9.188;2024-02-23T06:58:24;6.20;99.90
9209;DHT22;4639;48.862;9.188;2024-02-23T07:00:50;6.30;99.90
9209;DHT22;4639;48.862;9.188;2024-02-23T07:03:15;6.30;99.90
9209;DHT22;4639;48.862;9.188;2024-02-23T07:05:42;6.30;99.90
9209;DHT22;4639;48.862;9.188;2024-02-23T07:08:08;6.30;99.90
9209;DHT22;4639;48.862;9.188;2024-02-23T07:10:33;6.30;99.90
9209;DHT22;4639;48.862;9.188;2024-02-23T07:12:59;6.30;99.90
9209;DHT22;4639;48.862;9.188;2024-02-23T07:15:24;6.50;99.90
9209;DHT22;4639;48.862;9.188;2024-02-23T07:17:51;6.30;99.90
9209;DHT22;4639;48.862;9.188;2024-02-23T07:20:17;6.40;99.90
9209;DHT22;4639;48.862;9.188;2024-02-23T07:22:46;6.40;99.90
9209;DHT22;4639;48.862;9.188;2024-02-23T07:25:15;6.50;99.90
9209;DHT22;4639;48.862;9.188;2024-02-23T07:27:41;6.60;99.90
9209;DHT22;4639;48.862;9.188;2024-02-23T07:30:07;6.50;99.90
9209;DHT22;4639;48.862;9.188;2024-02-23T07:32:33;6.60;99.90
9209;DHT22;4639;48.862;9.188;2024-02-23T07:34:58;6.60;99.90
9209;DHT22;4639;48.862;9.188;2024-02-23T07:37:26;6.60;99.90
9209;DHT22;4639;48.862;9.188;2024-02-23T07:39:52;6.50;99.90
9209;DHT22;4639;48.862;9.188;2024-02-23T07:42:18;6.40;99.90
9209;DHT22;4639;48.862;9.188;2024-02-23T07:44:44;6.40;99.90
9209;DHT22;4639;48.862;9.188;2024-02-23T07:47:11;6.40;99.90
9209;DHT22;4639;48.862;9.188;2024-02-23T07:49:36;6.40;99.90
9209;DHT22;4639;48.862;9.188;2024-02-23T07:52:02;6.50;99.90
9209;DHT22;4639;48.862;9.188;2024-02-23T07:54:28;6.60;99.90
9209;DHT22;4639;48.862;9.188;2024-02-23T07:56:54;6.60;99.90
9209;DHT22;4639;48.862;9.188;2024-02-23T07:59:19;6.60;99.90
9209;DHT22;4639;48.862;9.188;2024-02-23T08:01:45;6.60;99.90
9209;DHT22;4639;48.862;9.188;2024-02-23T08:04:11;6.50;99.90
9209;DHT22;4639;48.862;9.188;2024-02-23T08:06:39;6.60;99.90
9209;DHT22;4639;48.862;9.188;2024-02-23T08:09:04;6.70;99.90
9209;DHT22;4639;48.862;9.188;2024-02-23T08:11:30;6.60;99.90
9209;DHT22;4639;48.862;9.188;2024-02-23T08:13:55;6.60;99.90
9209;DHT22;4639;48.862;9.188;2024-02-23T08:16:21;6.60;99.90
9209;DHT22;4639;48.862;9.188;2024-02-23T08:18:46;6.60;99.90
9209;DHT22;4639;48.862;9.188;2024-02-23T08:21:12;6.50;99.90
9209;DHT22;4639;48.862;9.188;2024-02-23T08:23:40;6.50;99.90
9209;DHT22;4639;48.862;9.188;2024-02-23T08:26:06;6.40;99.90
9209;DHT22;4639;48.862;9.188;2024-02-23T08:28:32;6.50;99.90
9209;DHT22;4639;48.862;9.188;2024-02-23T08:30:57;6.60;99.90
9209;DHT22;4639;48.862;9.188;2024-02-23T08:33:23;6.60;99.90
9209;DHT22;4639;48.862;9.188;2024-02-23T08:35:48;6.80;99.90
9209;DHT22;4639;48.862;9.188;2024-02-23T08:38:14;6.60;99.90
9209;DHT22;4639;48.862;9.188;2024-02-23T08:40:40;6.70;99.90
9209;DHT22;4639;48.862;9.188;2024-02-23T08:43:07;6.70;99.90
9209;DHT22;4639;48.862;9.188;2024-02-23T08:45:33;6.70;99.90
9209;DHT22;4639;48.862;9.188;2024-02-23T08:47:58;6.70;99.90
9209;DHT22;4639;48.862;9.188;2024-02-23T08:50:24;6.70;99.90
9209;DHT22;4639;48.862;9.188;2024-02-23T08:52:49;6.80;99.90
9209;DHT22;4639;48.862;9.188;2024-02-23T08:55:15;6.90;99.90
9209;DHT22;4639;48.862;9.188;2024-02-23T08:57:42;6.90;99.90
9209;DHT22;4639;48.862;9.188;2024-02-23T09:00:08;6.90;99.90
9209;DHT22;4639;48.862;9.188;2024-02-23T09:02:34;6.90;99.90
9209;DHT22;4639;48.862;9.188;2024-02-23T09:05:01;6.80;99.90
9209;DHT22;4639;48.862;9.188;2024-02-23T09:07:26;6.70;99.90
9209;DHT22;4639;48.862;9.188;2024-02-23T09:09:52;6.80;99.90
9209;DHT22;4639;48.862;9.188;2024-02-23T09:12:18;6.80;99.90
9209;DHT22;4639;48.862;9.188;2024-02-23T09:14:44;6.80;99.90
9209;DHT22;4639;48.862;9.188;2024-02-23T09:17:09;7.00;99.90
9209;DHT22;4639;48.862;9.188;2024-02-23T09:19:36;7.00;99.90
9209;DHT22;4639;48.862;9.188;2024-02-23T09:22:02;7.00;99.90
9209;DHT22;4639;48.862;9.188;2024-02-23T09:24:28;6.90;99.90
9209;DHT22;4639;48.862;9.188;2024-02-23T09:26:54;6.90;99.90
9209;DHT22;4639;48.862;9.188;2024-02-23T09:29:20;6.90;99.90
9209;DHT22;4639;48.862;9.188;2024-02-23T09:31:46;6.90;99.90
9209;DHT22;4639;48.862;9.188;2024-02-23T09:34:12;7.00;99.90
9209;DHT22;4639;48.862;9.188;2024-02-23T09:36:38;7.00;99.90
9209;DHT22;4639;48.862;9.188;2024-02-23T09:39:03;6.90;99.90
9209;DHT22;4639;48.862;9.188;2024-02-23T09:41:30;6.90;99.90
9209;DHT22;4639;48.862;9.188;2024-02-23T09:43:58;6.90;99.90
9209;DHT22;4639;48.862;9.188;2024-02-23T09:46:26;6.90;99.90
9209;DHT22;4639;48.862;9.188;2024-02-23T09:48:52;7.00;99.90
9209;DHT22;4639;48.862;9.188;2024-02-23T09:51:19;7.20;99.90
9209;DHT22;4639;48.862;9.188;2024-02-23T09:53:47;7.30;99.90
9209;DHT22;4639;48.862;9.188;2024-02-23T09:56:15;7.50;99.90
9209;DHT22;4639;48.862;9.188;2024-02-23T09:58:43;7.50;99.90
9209;DHT22;4639;48.862;9.188;2024-02-23T10:01:10;7.60;99.90
9209;DHT22;4639;48.862;9.188;2024-02-23T10:03:37;8.00;99.90
9209;DHT22;4639;48.862;9.188;2024-02-23T10:06:04;8.10;99.90
9209;DHT22;4639;48.862;9.188;2024-02-23T10:08:30;8.10;99.90
9209;DHT22;4639;48.862;9.188;2024-02-23T10:10:56;8.00;99.90
9209;DHT22;4639;48.862;9.188;2024-02-23T10:13:23;8.00;99.90
9209;DHT22;4639;48.862;9.188;2024-02-23T10:15:52;8.00;99.90
9209;DHT22;4639;48.862;9.188;2024-02-23T10:18:19;8.20;99.90
9209;DHT22;4639;48.862;9.188;2024-02-23T10:20:45;8.10;99.90
9209;DHT22;4639;48.862;9.188;2024-02-23T10:23:11;8.00;99.90
9209;DHT22;4639;48.862;9.188;2024-02-23T10:25:37;7.80;99.90
9209;DHT22;4639;48.862;9.188;2024-02-23T10:28:03;7.80;99.90
9209;DHT22;4639;48.862;9.188;2024-02-23T10:30:29;7.80;99.90
9209;DHT22;4639;48.862;9.188;2024-02-23T10:32:56;7.80;99.90
9209;DHT22;4639;48.862;9.188;2024-02-23T10:35:24;7.80;99.90
9209;DHT22;4639;48.862;9.188;2024-02-23T10:37:51;7.80;99.90
9209;DHT22;4639;48.862;9.188;2024-02-23T10:40:19;7.80;99.90
9209;DHT22;4639;48.862;9.188;2024-02-23T10:42:46;7.80;99.90
9209;DHT22;4639;48.862;9.188;2024-02-23T10:45:19;7.90;99.90
9209;DHT22;4639;48.862;9.188;2024-02-23T10:47:45;7.90;99.90
9209;DHT22;4639;48.862;9.188;2024-02-23T10:50:11;7.80;99.90
9209;DHT22;4639;48.862;9.188;2024-02-23T10:52:41;7.90;99.90
9209;DHT22;4639;48.862;9.188;2024-02-23T10:55:08;8.10;99.90
9209;DHT22;4639;48.862;9.188;2024-02-23T10:57:35;8.20;99.90
9209;DHT22;4639;48.862;9.188;2024-02-23T11:00:01;8.30;99.90
9209;DHT22;4639;48.862;9.188;2024-02-23T11:02:31;8.40;99.90
9209;DHT22;4639;48.862;9.188;2024-02-23T11:04:58;8.50;99.90
9209;DHT22;4639;48.862;9.188;2024-02-23T11:07:24;8.60;99.90
9209;DHT22;4639;48.862;9.188;2024-02-23T11:09:59;8.60;99.90
9209;DHT22;4639;48.862;9.188;2024-02-23T11:12:28;8.70;99.90
9209;DHT22;4639;48.862;9.188;2024-02-23T11:14:58;9.00;99.90
9209;DHT22;4639;48.862;9.188;2024-02-23T11:17:26;9.10;99.90
9209;DHT22;4639;48.862;9.188;2024-02-23T11:19:54;9.20;99.90
9209;DHT22;4639;48.862;9.188;2024-02-23T11:22:27;9.20;99.90
9209;DHT22;4639;48.862;9.188;2024-02-23T11:25:03;9.10;99.90
9209;DHT22;4639;48.862;9.188;2024-02-23T11:27:31;9.00;99.90
9209;DHT22;4639;48.862;9.188;2024-02-23T11:30:03;8.90;99.90
9209;DHT22;4639;48.862;9.188;2024-02-23T11:32:43;8.90;99.90
9209;DHT22;4639;48.862;9.188;2024-02-23T11:35:13;8.70;99.90
9209;DHT22;4639;48.862;9.188;2024-02-23T11:37:52;8.60;99.90
9209;DHT22;4639;48.862;9.188;2024-02-23T11:40:31;8.70;99.90
9209;DHT22;4639;48.862;9.188;2024-02-23T11:42:57;8.70;99.90
9209;DHT22;4639;48.862;9.188;2024-02-23T11:45:25;8.70;99.90
9209;DHT22;4639;48.862;9.188;2024-02-23T11:47:53;8.70;99.90
9209;DHT22;4639;48.862;9.188;2024-02-23T11:50:18;8.60;99.90
9209;DHT22;4639;48.862;9.188;2024-02-23T11:52:46;8.50;99.90
9209;DHT22;4639;48.862;9.188;2024-02-23T11:55:12;8.50;99.90
9209;DHT22;4639;48.862;9.188;2024-02-23T11:57:38;8.50;99.90
9209;DHT22;4639;48.862;9.188;2024-02-23T12:00:05;8.40;99.90
9209;DHT22;4639;48.862;9.188;2024-02-23T12:02:33;8.50;99.90
9209;DHT22;4639;48.862;9.188;2024-02-23T12:05:00;8.60;99.90
9209;DHT22;4639;48.862;9.188;2024-02-23T12:07:25;8.60;99.90
9209;DHT22;4639;48.862;9.188;2024-02-23T12:09:53;8.60;99.90
9209;DHT22;4639;48.862;9.188;2024-02-23T12:12:19;8.60;99.90
9209;DHT22;4639;48.862;9.188;2024-02-23T12:14:44;8.60;99.90
9209;DHT22;4639;48.862;9.188;2024-02-23T12:17:10;8.60;99.90
9209;DHT22;4639;48.862;9.188;2024-02-23T12:19:39;8.60;99.90
9209;DHT22;4639;48.862;9.188;2024-02-23T12:22:28;8.60;99.90
9209;DHT22;4639;48.862;9.188;2024-02-23T12:24:57;8.60;99.90
9209;DHT22;4639;48.862;9.188;2024-02-23T12:27:28;8.60;99.90
9209;DHT22;4639;48.862;9.188;2024-02-23T12:29:55;8.60;99.90
9209;DHT22;4639;48.862;9.188;2024-02-23T12:32:21;8.60;99.90
9209;DHT22;4639;48.862;9.188;2024-02-23T12:34:47;8.50;99.90
9209;DHT22;4639;48.862;9.188;2024-02-23T12:37:16;8.50;99.90
9209;DHT22;4639;48.862;9.188;2024-02-23T12:39:52;8.50;99.90
9209;DHT22;4639;48.862;9.188;2024-02-23T12:42:18;8.50;99.90
9209;DHT22;4639;48.862;9.188;2024-02-23T12:44:44;8.80;99.90
9209;DHT22;4639;48.862;9.188;2024-02-23T12:47:12;8.60;99.90
9209;DHT22;4639;48.862;9.188;2024-02-23T12:49:41;8.70;99.90
9209;DHT22;4639;48.862;9.188;2024-02-23T12:52:09;8.90;99.90
9209;DHT22;4639;48.862;9.188;2024-02-23T12:54:35;8.90;99.90
9209;DHT22;4639;48.862;9.188;2024-02-23T12:57:03;8.90;99.90
9209;DHT22;4639;48.862;9.188;2024-02-23T12:59:29;8.80;99.90
9209;DHT22;4639;48.862;9.188;2024-02-23T13:01:55;8.80;99.90
9209;DHT22;4639;48.862;9.188;2024-02-23T13:04:20;8.70;99.90
9209;DHT22;4639;48.862;9.188;2024-02-23T13:06:47;8.80;99.90
9209;DHT22;4639;48.862;9.188;2024-02-23T13:09:16;8.80;99.90
9209;DHT22;4639;48.862;9.188;2024-02-23T13:11:42;8.90;99.90
9209;DHT22;4639;48.862;9.188;2024-02-23T13:14:07;8.90;99.90
9209;DHT22;4639;48.862;9.188;2024-02-23T13:16:35;9.00;99.90
9209;DHT22;4639;48.862;9.188;2024-02-23T13:19:01;9.00;99.90
9209;DHT22;4639;48.862;9.188;2024-02-23T13:21:29;9.00;99.90
9209;DHT22;4639;48.862;9.188;2024-02-23T13:24:16;8.90;99.90
9209;DHT22;4639;48.862;9.188;2024-02-23T13:26:42;8.90;99.90
9209;DHT22;4639;48.862;9.188;2024-02-23T13:29:07;9.00;99.90
9209;DHT22;4639;48.862;9.188;2024-02-23T13:31:33;9.00;99.90
9209;DHT22;4639;48.862;9.188;2024-02-23T13:34:01;9.30;99.90
9209;DHT22;4639;48.862;9.188;2024-02-23T13:36:36;9.00;99.90
9209;DHT22;4639;48.862;9.188;2024-02-23T13:39:01;9.00;99.90
9209;DHT22;4639;48.862;9.188;2024-02-23T13:41:27;9.00;99.90
9209;DHT22;4639;48.862;9.188;2024-02-23T13:43:56;9.00;99.90
9209;DHT22;4639;48.862;9.188;2024-02-23T13:46:21;9.00;99.90
9209;DHT22;4639;48.862;9.188;2024-02-23T13:49:05;8.90;99.90
9209;DHT22;4639;48.862;9.188;2024-02-23T13:51:32;9.00;99.90
9209;DHT22;4639;48.862;9.188;2024-02-23T13:53:58;9.10;99.90
9209;DHT22;4639;48.862;9.188;2024-02-23T13:56:24;9.10;99.90
9209;DHT22;4639;48.862;9.188;2024-02-23T13:58:49;9.10;99.90
9209;DHT22;4639;48.862;9.188;2024-02-23T14:01:18;9.20;99.90
9209;DHT22;4639;48.862;9.188;2024-02-23T14:03:43;9.30;99.90
9209;DHT22;4639;48.862;9.188;2024-02-23T14:06:09;9.40;99.90
9209;DHT22;4639;48.862;9.188;2024-02-23T14:08:44;9.40;99.90
9209;DHT22;4639;48.862;9.188;2024-02-23T14:11:12;9.40;99.90
9209;DHT22;4639;48.862;9.188;2024-02-23T14:13:40;9.30;99.90
9209;DHT22;4639;48.862;9.188;2024-02-23T14:16:06;9.40;99.90
9209;DHT22;4639;48.862;9.188;2024-02-23T14:18:32;9.30;99.90
9209;DHT22;4639;48.862;9.188;2024-02-23T14:21:05;9.20;99.90
9209;DHT22;4639;48.862;9.188;2024-02-23T14:23:39;9.20;99.90
9209;DHT22;4639;48.862;9.188;2024-02-23T14:26:05;9.20;99.90
9209;DHT22;4639;48.862;9.188;2024-02-23T14:28:34;9.10;99.90
9209;DHT22;4639;48.862;9.188;2024-02-23T14:30:59;9.20;99.90
9209;DHT22;4639;48.862;9.188;2024-02-23T14:33:25;9.20;99.90
9209;DHT22;4639;48.862;9.188;2024-02-23T14:35:51;9.20;99.90
9209;DHT22;4639;48.862;9.188;2024-02-23T14:38:17;9.20;99.90
9209;DHT22;4639;48.862;9.188;2024-02-23T14:40:43;9.10;99.90
9209;DHT22;4639;48.862;9.188;2024-02-23T14:43:08;9.10;99.90
9209;DHT22;4639;48.862;9.188;2024-02-23T14:45:35;9.20;99.90
9209;DHT22;4639;48.862;9.188;2024-02-23T14:48:01;9.20;99.90
9209;DHT22;4639;48.862;9.188;2024-02-23T14:50:29;9.20;99.90
9209;DHT22;4639;48.862;9.188;2024-02-23T14:52:57;9.20;99.90
9209;DHT22;4639;48.862;9.188;2024-02-23T14:55:23;9.20;99.90
9209;DHT22;4639;48.862;9.188;2024-02-23T14:57:49;9.20;99.90
9209;DHT22;4639;48.862;9.188;2024-02-23T15:00:15;9.20;99.90
9209;DHT22;4639;48.862;9.188;2024-02-23T15:02:40;9.20;99.90
9209;DHT22;4639;48.862;9.188;2024-02-23T15:05:09;9.10;99.90
9209;DHT22;4639;48.862;9.188;2024-02-23T15:07:41;9.20;99.90
9209;DHT22;4639;48.862;9.188;2024-02-23T15:10:07;9.20;99.90
9209;DHT22;4639;48.862;9.188;2024-02-23T15:12:35;9.20;99.90
9209;DHT22;4639;48.862;9.188;2024-02-23T15:15:01;9.20;99.90
9209;DHT22;4639;48.862;9.188;2024-02-23T15:17:26;9.20;99.90
9209;DHT22;4639;48.862;9.188;2024-02-23T15:19:55;9.20;99.90
9209;DHT22;4639;48.862;9.188;2024-02-23T15:22:21;9.20;99.90
9209;DHT22;4639;48.862;9.188;2024-02-23T15:24:46;9.20;99.90
9209;DHT22;4639;48.862;9.188;2024-02-23T15:27:21;9.20;99.90
9209;DHT22;4639;48.862;9.188;2024-02-23T15:29:47;9.10;99.90
9209;DHT22;4639;48.862;9.188;2024-02-23T15:32:14;9.10;99.90
9209;DHT22;4639;48.862;9.188;2024-02-23T15:34:40;9.10;99.90
9209;DHT22;4639;48.862;9.188;2024-02-23T15:37:06;9.10;99.90
9209;DHT22;4639;48.862;9.188;2024-02-23T15:39:32;9.10;99.90
9209;DHT22;4639;48.862;9.188;2024-02-23T15:41:58;9.10;99.90
9209;DHT22;4639;48.862;9.188;2024-02-23T15:44:23;9.20;99.90
9209;DHT22;4639;48.862;9.188;2024-02-23T15:46:49;9.20;99.90
9209;DHT22;4639;48.862;9.188;2024-02-23T15:49:15;9.10;99.90
9209;DHT22;4639;48.862;9.188;2024-02-23T15:51:44;9.10;99.90
9209;DHT22;4639;48.862;9.188;2024-02-23T15:54:10;9.20;99.90
9209;DHT22;4639;48.862;9.188;2024-02-23T15:56:35;9.20;99.90
9209;DHT22;4639;48.862;9.188;2024-02-23T15:59:01;9.20;99.90
9209;DHT22;4639;48.862;9.188;2024-02-23T16:01:33;9.20;99.90
9209;DHT22;4639;48.862;9.188;2024-02-23T16:03:59;9.20;99.90
9209;DHT22;4639;48.862;9.188;2024-02-23T16:06:24;9.30;99.90
9209;DHT22;4639;48.862;9.188;2024-02-23T16:08:50;9.20;99.90
9209;DHT22;4639;48.862;9.188;2024-02-23T16:11:17;8.90;99.90
9209;DHT22;4639;48.862;9.188;2024-02-23T16:13:43;8.60;99.90